Time;durP1;ratioP1;P1;durP2;ratioP2;P2;SDS_P1;SDS_P2;PMS_P1;PMS_P2;Temp;Humidity;BMP_temperature;BMP_pressure;BME280_temperature;BME280_humidity;BME280_pressure;Samples;Min_cycle;Max_cycle;Signal;HPM_P1;HPM_P2
2021/10/17 00:02:17;0.00;0.00;0.62;0.00;0.00;0.62;3.27;1.87;;;24.40;29.30;;;;;;2238031;62;20714;-56
2021/10/17 00:05:02;0.00;0.00;0.62;0.00;0.00;0.62;3.20;2.50;;;24.30;29.20;;;;;;2238108;62;20488;-52
2021/10/17 00:07:49;0.00;0.00;0.62;0.00;0.00;0.62;2.70;1.50;;;24.30;29.20;;;;;;2237178;62;20401;-54
2021/10/17 00:10:36;0.00;0.00;0.62;0.00;0.00;0.62;3.03;1.70;;;24.30;29.10;;;;;;2237946;62;20378;-55
2021/10/17 00:13:20;0.00;0.00;0.62;0.00;0.00;0.62;3.00;2.20;;;24.30;29.00;;;;;;2237346;62;20484;-55
2021/10/17 00:16:05;0.00;0.00;0.62;0.00;0.00;0.62;2.60;1.97;;;24.20;28.90;;;;;;2238077;62;20591;-54
2021/10/17 00:18:50;0.00;0.00;0.62;0.00;0.00;0.62;6.10;2.23;;;24.20;28.90;;;;;;2238023;62;20402;-55
2021/10/17 00:21:34;0.00;0.00;0.62;0.00;0.00;0.62;3.40;2.20;;;24.20;28.90;;;;;;2239364;62;20387;-54
2021/10/17 00:24:21;0.00;0.00;0.62;0.00;0.00;0.62;4.50;2.53;;;24.20;28.80;;;;;;2237856;62;20399;-53
2021/10/17 00:27:06;0.00;0.00;0.62;0.00;0.00;0.62;3.87;2.07;;;24.10;28.80;;;;;;2237928;62;20367;-55
2021/10/17 00:29:51;0.00;0.00;0.62;0.00;0.00;0.62;3.17;2.00;;;24.10;28.80;;;;;;2239570;62;20419;-53
2021/10/17 00:32:36;0.00;0.00;0.62;0.00;0.00;0.62;4.27;2.27;;;24.10;28.70;;;;;;2240096;62;20422;-54
2021/10/17 00:35:21;0.00;0.00;0.62;0.00;0.00;0.62;4.67;1.87;;;24.10;28.70;;;;;;2237313;62;20384;-51
2021/10/17 00:38:06;0.00;0.00;0.62;0.00;0.00;0.62;4.23;2.47;;;24.00;28.60;;;;;;2240192;62;20421;-53
2021/10/17 00:40:53;0.00;0.00;0.62;0.00;0.00;0.62;3.60;2.30;;;24.00;28.50;;;;;;2237974;62;20363;-52
2021/10/17 00:43:38;0.00;0.00;0.62;0.00;0.00;0.62;5.20;2.53;;;24.00;28.50;;;;;;2237125;62;20371;-53
2021/10/17 00:46:23;0.00;0.00;0.62;0.00;0.00;0.62;4.10;2.77;;;23.90;28.50;;;;;;2237665;62;20358;-54
2021/10/17 00:49:07;0.00;0.00;0.62;0.00;0.00;0.62;4.20;2.53;;;23.90;28.50;;;;;;2238097;62;20426;-53
2021/10/17 00:51:52;0.00;0.00;0.62;0.00;0.00;0.62;3.50;2.50;;;23.90;28.40;;;;;;2237132;62;20407;-54
2021/10/17 00:54:36;0.00;0.00;0.62;0.00;0.00;0.62;3.83;2.83;;;23.90;28.40;;;;;;2237654;62;20420;-53
2021/10/17 00:57:22;0.00;0.00;0.62;0.00;0.00;0.62;5.50;2.40;;;23.80;28.40;;;;;;2239979;62;20437;-54
2021/10/17 01:00:09;0.00;0.00;0.62;0.00;0.00;0.62;3.60;2.43;;;23.80;28.40;;;;;;2237747;62;20367;-55
2021/10/17 01:02:54;0.00;0.00;0.62;0.00;0.00;0.62;2.70;2.10;;;23.80;28.40;;;;;;2240166;62;20367;-53
2021/10/17 01:05:39;0.00;0.00;0.62;0.00;0.00;0.62;3.23;2.33;;;23.70;28.30;;;;;;2239267;62;20355;-51
2021/10/17 01:08:24;0.00;0.00;0.62;0.00;0.00;0.62;3.60;2.53;;;23.70;28.30;;;;;;2237560;62;20384;-52
2021/10/17 01:11:10;0.00;0.00;0.62;0.00;0.00;0.62;3.60;2.20;;;23.60;28.20;;;;;;2240323;62;20607;-54
2021/10/17 01:13:55;0.00;0.00;0.62;0.00;0.00;0.62;4.13;2.60;;;23.60;28.20;;;;;;2239264;62;20849;-58
2021/10/17 01:16:40;0.00;0.00;0.62;0.00;0.00;0.62;4.17;2.67;;;23.60;28.20;;;;;;2239829;62;20727;-52
2021/10/17 01:19:25;0.00;0.00;0.62;0.00;0.00;0.62;4.37;2.50;;;23.60;28.20;;;;;;2240268;62;20391;-55
2021/10/17 01:22:24;0.00;0.00;0.62;0.00;0.00;0.62;3.73;2.60;;;23.50;28.20;;;;;;2239931;62;20356;-54
2021/10/17 01:25:11;0.00;0.00;0.62;0.00;0.00;0.62;3.20;2.63;;;23.50;28.20;;;;;;2240108;61;20702;-53
2021/10/17 01:27:55;0.00;0.00;0.62;0.00;0.00;0.62;2.93;2.27;;;23.50;28.10;;;;;;2237021;62;20379;-53
2021/10/17 01:30:41;0.00;0.00;0.62;0.00;0.00;0.62;3.57;2.17;;;23.40;28.00;;;;;;2240002;62;20412;-55
2021/10/17 01:33:26;0.00;0.00;0.62;0.00;0.00;0.62;4.73;2.17;;;23.40;28.00;;;;;;2240356;62;20382;-52
2021/10/17 01:36:13;0.00;0.00;0.62;0.00;0.00;0.62;4.90;2.43;;;23.40;28.00;;;;;;2239122;62;20367;-54
2021/10/17 01:38:59;0.00;0.00;0.62;0.00;0.00;0.62;3.83;2.30;;;23.40;28.00;;;;;;2237747;62;20383;-51
2021/10/17 01:41:44;0.00;0.00;0.62;0.00;0.00;0.62;3.30;2.10;;;23.30;28.00;;;;;;2237806;62;20584;-52
2021/10/17 01:44:33;0.00;0.00;0.62;0.00;0.00;0.62;3.83;2.17;;;23.30;28.00;;;;;;2239795;62;20755;-51
2021/10/17 01:47:18;0.00;0.00;0.62;0.00;0.00;0.62;5.10;2.67;;;23.30;28.00;;;;;;2239961;62;20371;-57
2021/10/17 01:50:04;0.00;0.00;0.62;0.00;0.00;0.62;3.10;1.80;;;23.30;28.10;;;;;;2239188;62;20362;-52
2021/10/17 01:52:51;0.00;0.00;0.62;0.00;0.00;0.62;3.03;1.97;;;23.30;28.10;;;;;;2239997;62;20391;-51
2021/10/17 01:55:38;0.00;0.00;0.62;0.00;0.00;0.62;4.40;2.13;;;23.30;28.00;;;;;;2240127;62;20403;-53
2021/10/17 01:58:23;0.00;0.00;0.62;0.00;0.00;0.62;6.03;2.83;;;23.20;28.00;;;;;;2238931;62;20395;-50
2021/10/17 02:01:09;0.00;0.00;0.62;0.00;0.00;0.62;3.10;2.03;;;23.20;28.00;;;;;;2240049;62;20720;-54
2021/10/17 02:03:53;0.00;0.00;0.62;0.00;0.00;0.62;3.70;2.20;;;23.20;28.00;;;;;;2239941;62;20371;-51
2021/10/17 02:06:38;0.00;0.00;0.62;0.00;0.00;0.62;3.00;1.93;;;23.20;28.00;;;;;;2239750;62;20388;-52
2021/10/17 02:09:23;0.00;0.00;0.62;0.00;0.00;0.62;5.50;2.03;;;23.20;28.00;;;;;;2240048;62;20415;-50
2021/10/17 02:12:11;0.00;0.00;0.62;0.00;0.00;0.62;4.87;2.50;;;23.20;28.00;;;;;;2238993;62;20387;-49
2021/10/17 02:14:59;0.00;0.00;0.62;0.00;0.00;0.62;4.10;2.50;;;23.10;27.90;;;;;;2239845;62;20420;-51
2021/10/17 02:17:46;0.00;0.00;0.62;0.00;0.00;0.62;3.50;2.07;;;23.10;27.90;;;;;;2240678;62;20407;-52
2021/10/17 02:20:34;0.00;0.00;0.62;0.00;0.00;0.62;3.50;2.20;;;23.10;27.90;;;;;;2239758;62;20380;-53
2021/10/17 02:23:20;0.00;0.00;0.62;0.00;0.00;0.62;3.80;2.33;;;23.10;28.00;;;;;;2240750;62;20451;-52
2021/10/17 02:26:10;0.00;0.00;0.62;0.00;0.00;0.62;4.67;2.20;;;23.10;27.90;;;;;;2240386;62;20512;-51
2021/10/17 02:29:15;0.00;0.00;0.62;0.00;0.00;0.62;2.57;2.00;;;23.10;28.00;;;;;;2240846;62;20390;-53
2021/10/17 02:32:20;0.00;0.00;0.62;0.00;0.00;0.62;3.87;2.50;;;23.10;28.00;;;;;;2240132;62;20395;-53
2021/10/17 02:35:11;0.00;0.00;0.62;0.00;0.00;0.62;2.93;2.20;;;23.00;27.90;;;;;;2239640;62;20404;-52
2021/10/17 02:37:56;0.00;0.00;0.62;0.00;0.00;0.62;3.43;1.73;;;23.00;27.90;;;;;;2238179;62;20599;-51
2021/10/17 02:40:40;0.00;0.00;0.62;0.00;0.00;0.62;3.77;2.20;;;23.00;27.90;;;;;;2240596;62;20367;-51
2021/10/17 02:43:29;0.00;0.00;0.62;0.00;0.00;0.62;2.67;1.97;;;23.00;28.50;;;;;;2240449;62;20690;-54
2021/10/17 02:46:15;0.00;0.00;0.62;0.00;0.00;0.62;3.50;2.20;;;23.00;27.90;;;;;;2240464;62;20436;-52
2021/10/17 02:49:00;0.00;0.00;0.62;0.00;0.00;0.62;3.30;2.50;;;23.00;27.90;;;;;;2239640;62;20554;-52
2021/10/17 02:51:45;0.00;0.00;0.62;0.00;0.00;0.62;3.80;2.37;;;22.90;27.90;;;;;;2240509;62;20419;-51
2021/10/17 02:54:30;0.00;0.00;0.62;0.00;0.00;0.62;3.53;2.27;;;22.90;27.90;;;;;;2240500;62;20735;-53
2021/10/17 02:57:16;0.00;0.00;0.62;0.00;0.00;0.62;4.33;2.97;;;22.90;27.90;;;;;;2239526;62;20458;-53
2021/10/17 03:00:02;0.00;0.00;0.62;0.00;0.00;0.62;2.87;1.90;;;22.90;27.90;;;;;;2240554;62;20473;-56
2021/10/17 03:02:51;0.00;0.00;0.62;0.00;0.00;0.62;3.47;2.43;;;22.90;27.90;;;;;;2240599;62;20363;-56
2021/10/17 03:05:36;0.00;0.00;0.62;0.00;0.00;0.62;3.60;2.07;;;22.90;27.90;;;;;;2240181;62;20371;-55
2021/10/17 03:08:21;0.00;0.00;0.62;0.00;0.00;0.62;2.67;1.93;;;22.90;27.90;;;;;;2237950;62;20415;-56
2021/10/17 03:11:06;0.00;0.00;0.62;0.00;0.00;0.62;6.70;2.63;;;22.80;27.80;;;;;;2237237;62;20741;-54
2021/10/17 03:13:53;0.00;0.00;0.62;0.00;0.00;0.62;4.10;2.53;;;22.80;27.80;;;;;;2240496;62;20375;-55
2021/10/17 03:16:47;0.00;0.00;0.62;0.00;0.00;0.62;3.40;2.40;;;22.80;27.80;;;;;;2240513;62;20368;-58
2021/10/17 03:19:34;0.00;0.00;0.62;0.00;0.00;0.62;3.47;2.33;;;22.80;27.80;;;;;;2239666;62;20455;-54
2021/10/17 03:22:19;0.00;0.00;0.62;0.00;0.00;0.62;3.63;2.20;;;22.80;27.80;;;;;;2238088;62;20375;-56
2021/10/17 03:25:05;0.00;0.00;0.62;0.00;0.00;0.62;4.30;2.27;;;22.80;27.80;;;;;;2238250;62;20811;-53
2021/10/17 03:27:50;0.00;0.00;0.62;0.00;0.00;0.62;4.20;2.47;;;22.70;27.80;;;;;;2239989;62;20412;-54
2021/10/17 03:30:43;0.00;0.00;0.62;0.00;0.00;0.62;4.30;2.53;;;22.70;27.80;;;;;;2240380;62;20359;-53
2021/10/17 03:33:30;0.00;0.00;0.62;0.00;0.00;0.62;3.47;2.30;;;22.70;27.80;;;;;;2239619;62;20363;-55
2021/10/17 03:36:22;0.00;0.00;0.62;0.00;0.00;0.62;4.27;2.60;;;22.70;27.80;;;;;;2240176;62;20510;-52
2021/10/17 03:39:07;0.00;0.00;0.62;0.00;0.00;0.62;4.00;2.53;;;22.70;28.30;;;;;;2240550;62;20387;-57
2021/10/17 03:41:51;0.00;0.00;0.62;0.00;0.00;0.62;5.00;2.20;;;22.70;27.80;;;;;;2237241;62;20406;-51
2021/10/17 03:44:36;0.00;0.00;0.62;0.00;0.00;0.62;3.60;2.60;;;22.60;27.70;;;;;;2240337;62;20641;-54
2021/10/17 03:47:21;0.00;0.00;0.62;0.00;0.00;0.62;3.63;2.67;;;22.60;27.80;;;;;;2240343;62;20587;-52
2021/10/17 03:50:07;0.00;0.00;0.62;0.00;0.00;0.62;5.10;2.13;;;22.60;27.80;;;;;;2240107;62;20492;-52
2021/10/17 03:52:53;0.00;0.00;0.62;0.00;0.00;0.62;5.47;2.40;;;22.60;27.80;;;;;;2240374;62;20394;-50
2021/10/17 03:55:37;0.00;0.00;0.62;0.00;0.00;0.62;4.17;2.50;;;22.60;27.80;;;;;;2239406;62;20587;-52
2021/10/17 03:58:22;0.00;0.00;0.62;0.00;0.00;0.62;3.37;2.30;;;22.60;27.80;;;;;;2240100;62;20427;-50
2021/10/17 04:01:09;0.00;0.00;0.62;0.00;0.00;0.62;4.27;2.30;;;22.60;27.80;;;;;;2240567;62;20719;-53
2021/10/17 04:03:53;0.00;0.00;0.62;0.00;0.00;0.62;3.90;2.40;;;22.60;27.80;;;;;;2237160;62;20395;-50
2021/10/17 04:06:38;0.00;0.00;0.62;0.00;0.00;0.62;2.70;1.90;;;22.50;27.70;;;;;;2240150;62;20367;-51
2021/10/17 04:09:33;0.00;0.00;0.62;0.00;0.00;0.62;5.40;2.57;;;22.60;27.80;;;;;;2240469;62;20452;-55
2021/10/17 04:12:18;0.00;0.00;0.62;0.00;0.00;0.62;4.27;2.17;;;22.50;27.70;;;;;;2240034;62;20395;-55
2021/10/17 04:15:09;0.00;0.00;0.62;0.00;0.00;0.62;3.67;1.80;;;22.50;27.80;;;;;;2237845;62;20412;-52
2021/10/17 04:17:59;0.00;0.00;0.62;0.00;0.00;0.62;6.03;2.77;;;22.50;27.70;;;;;;2239268;62;20386;-48
2021/10/17 04:20:44;0.00;0.00;0.62;0.00;0.00;0.62;3.97;2.10;;;22.50;27.80;;;;;;2240243;62;20408;-55
2021/10/17 04:23:28;0.00;0.00;0.62;0.00;0.00;0.62;5.40;2.50;;;22.50;27.80;;;;;;2240533;62;20415;-55
2021/10/17 04:26:16;0.00;0.00;0.62;0.00;0.00;0.62;3.53;2.13;;;22.50;27.80;;;;;;2239319;62;20411;-52
2021/10/17 04:29:05;0.00;0.00;0.62;0.00;0.00;0.62;3.23;2.10;;;22.50;27.80;;;;;;2240224;62;20391;-50
2021/10/17 04:31:50;0.00;0.00;0.62;0.00;0.00;0.62;3.60;2.10;;;22.50;27.80;;;;;;2240162;62;20414;-50
2021/10/17 04:34:35;0.00;0.00;0.62;0.00;0.00;0.62;2.43;1.67;;;22.50;27.80;;;;;;2239966;62;20414;-50
2021/10/17 04:37:19;0.00;0.00;0.62;0.00;0.00;0.62;3.50;2.33;;;22.40;27.70;;;;;;2240051;62;20367;-50
2021/10/17 04:40:08;0.00;0.00;0.62;0.00;0.00;0.62;3.10;2.30;;;22.40;27.70;;;;;;2239236;62;20531;-52
2021/10/17 04:42:55;0.00;0.00;0.62;0.00;0.00;0.62;3.80;2.10;;;22.40;27.70;;;;;;2240221;62;20407;-51
2021/10/17 04:45:41;0.00;0.00;0.62;0.00;0.00;0.62;5.03;2.37;;;22.40;27.70;;;;;;2240306;62;20371;-52
2021/10/17 04:48:26;0.00;0.00;0.62;0.00;0.00;0.62;3.87;2.13;;;22.40;27.70;;;;;;2236894;62;20416;-53
2021/10/17 04:51:11;0.00;0.00;0.62;0.00;0.00;0.62;2.73;1.70;;;22.40;27.70;;;;;;2237793;62;20386;-52
2021/10/17 04:53:55;0.00;0.00;0.62;0.00;0.00;0.62;4.00;1.80;;;22.40;27.70;;;;;;2237960;62;20440;-50
2021/10/17 04:56:40;0.00;0.00;0.62;0.00;0.00;0.62;2.90;1.77;;;22.40;27.70;;;;;;2239873;62;20859;-53
2021/10/17 04:59:26;0.00;0.00;0.62;0.00;0.00;0.62;4.10;2.53;;;22.30;27.70;;;;;;2240139;62;20463;-50
2021/10/17 05:02:16;0.00;0.00;0.62;0.00;0.00;0.62;2.57;2.03;;;22.30;27.70;;;;;;2239273;62;20367;-53
2021/10/17 05:05:00;0.00;0.00;0.62;0.00;0.00;0.62;3.10;2.00;;;22.30;27.60;;;;;;2240169;62;20603;-52
2021/10/17 05:07:45;0.00;0.00;0.62;0.00;0.00;0.62;4.10;1.83;;;22.30;27.70;;;;;;2240121;62;20436;-52
2021/10/17 05:10:30;0.00;0.00;0.62;0.00;0.00;0.62;3.13;1.80;;;22.30;27.60;;;;;;2237027;62;20408;-52
2021/10/17 05:13:15;0.00;0.00;0.62;0.00;0.00;0.62;2.60;1.60;;;22.30;27.60;;;;;;2240042;62;20683;-51
2021/10/17 05:16:03;0.00;0.00;0.62;0.00;0.00;0.62;2.60;2.03;;;22.30;27.70;;;;;;2240162;62;20387;-51
2021/10/17 05:18:48;0.00;0.00;0.62;0.00;0.00;0.62;4.23;2.20;;;22.30;27.70;;;;;;2237345;62;20500;-55
2021/10/17 05:21:35;0.00;0.00;0.62;0.00;0.00;0.62;4.20;1.83;;;22.30;27.70;;;;;;2239934;62;20747;-53
2021/10/17 05:24:21;0.00;0.00;0.62;0.00;0.00;0.62;3.30;1.73;;;22.30;27.70;;;;;;2239216;62;20370;-52
2021/10/17 05:27:05;0.00;0.00;0.62;0.00;0.00;0.62;2.93;2.00;;;22.30;27.70;;;;;;2239865;62;20378;-53
2021/10/17 05:29:50;0.00;0.00;0.62;0.00;0.00;0.62;3.23;2.00;;;22.30;27.70;;;;;;2237883;62;20390;-50
2021/10/17 05:32:36;0.00;0.00;0.62;0.00;0.00;0.62;2.67;1.57;;;22.30;27.70;;;;;;2239334;62;20443;-52
2021/10/17 05:35:21;0.00;0.00;0.62;0.00;0.00;0.62;3.30;1.83;;;22.30;27.70;;;;;;2239825;62;20455;-54
2021/10/17 05:38:05;0.00;0.00;0.62;0.00;0.00;0.62;2.47;1.57;;;22.20;27.60;;;;;;2237967;62;20386;-53
2021/10/17 05:40:50;0.00;0.00;0.62;0.00;0.00;0.62;3.63;2.20;;;22.20;27.60;;;;;;2239511;62;20399;-51
2021/10/17 05:43:37;0.00;0.00;0.62;0.00;0.00;0.62;4.47;2.07;;;22.20;27.60;;;;;;2240013;62;20363;-53
2021/10/17 05:46:21;0.00;0.00;0.62;0.00;0.00;0.62;3.77;1.83;;;22.20;27.60;;;;;;2236947;62;20390;-51
2021/10/17 05:49:08;0.00;0.00;0.62;0.00;0.00;0.62;5.13;2.57;;;22.20;27.60;;;;;;2240215;62;20424;-53
2021/10/17 05:51:53;0.00;0.00;0.62;0.00;0.00;0.62;3.30;2.13;;;22.20;27.60;;;;;;2240576;62;20489;-49
2021/10/17 05:54:39;0.00;0.00;0.62;0.00;0.00;0.62;3.60;1.80;;;22.20;27.60;;;;;;2239754;62;20366;-51
2021/10/17 05:57:23;0.00;0.00;0.62;0.00;0.00;0.62;3.97;2.00;;;22.20;27.60;;;;;;2240463;62;20415;-53
2021/10/17 06:00:09;0.00;0.00;0.62;0.00;0.00;0.62;5.10;2.60;;;22.20;27.60;;;;;;2240857;62;20371;-50
2021/10/17 06:03:00;0.00;0.00;0.62;0.00;0.00;0.62;2.53;2.03;;;22.20;27.70;;;;;;2237701;62;20403;-49
2021/10/17 06:05:50;0.00;0.00;0.62;0.00;0.00;0.62;2.60;1.80;;;22.20;27.70;;;;;;2240511;62;20772;-54
2021/10/17 06:08:36;0.00;0.00;0.62;0.00;0.00;0.62;4.03;1.50;;;22.20;27.60;;;;;;2239810;62;20430;-56
2021/10/17 06:11:21;0.00;0.00;0.62;0.00;0.00;0.62;2.80;1.93;;;22.20;27.70;;;;;;2240787;62;20367;-52
2021/10/17 06:14:06;0.00;0.00;0.62;0.00;0.00;0.62;4.33;2.37;;;22.20;27.60;;;;;;2240762;62;20719;-54
2021/10/17 06:16:51;0.00;0.00;0.62;0.00;0.00;0.62;2.90;1.97;;;22.20;27.70;;;;;;2239674;62;20367;-53
2021/10/17 06:19:35;0.00;0.00;0.62;0.00;0.00;0.62;2.60;1.90;;;22.20;27.70;;;;;;2240561;62;20508;-53
2021/10/17 06:22:22;0.00;0.00;0.62;0.00;0.00;0.62;3.30;2.03;;;22.20;27.60;;;;;;2240836;62;20731;-54
2021/10/17 06:25:07;0.00;0.00;0.62;0.00;0.00;0.62;3.90;2.10;;;22.20;27.60;;;;;;2239876;62;20379;-54
2021/10/17 06:27:53;0.00;0.00;0.62;0.00;0.00;0.62;3.50;1.97;;;22.10;27.60;;;;;;2240349;62;20406;-53
2021/10/17 06:30:37;0.00;0.00;0.62;0.00;0.00;0.62;2.97;1.87;;;22.20;27.70;;;;;;2240243;62;20367;-56
2021/10/17 06:33:22;0.00;0.00;0.62;0.00;0.00;0.62;9.73;2.23;;;22.10;27.60;;;;;;2240745;62;20395;-51
2021/10/17 06:36:07;0.00;0.00;0.62;0.00;0.00;0.62;2.50;1.60;;;22.10;27.50;;;;;;2240661;62;20600;-52
2021/10/17 06:38:53;0.00;0.00;0.62;0.00;0.00;0.62;4.50;2.07;;;22.10;27.50;;;;;;2239757;62;20436;-53
2021/10/17 06:41:39;0.00;0.00;0.62;0.00;0.00;0.62;3.60;1.87;;;22.10;27.60;;;;;;2240535;62;20371;-54
2021/10/17 06:44:33;0.00;0.00;0.62;0.00;0.00;0.62;3.93;1.90;;;22.10;27.60;;;;;;2240797;62;20388;-55
2021/10/17 06:47:19;0.00;0.00;0.62;0.00;0.00;0.62;2.93;1.90;;;22.10;27.50;;;;;;2239686;62;20641;-52
2021/10/17 06:50:04;0.00;0.00;0.62;0.00;0.00;0.62;3.73;1.80;;;22.10;27.60;;;;;;2240464;62;20580;-56
2021/10/17 06:52:51;0.00;0.00;0.62;0.00;0.00;0.62;2.70;1.60;;;22.10;27.60;;;;;;2240039;62;20395;-54
2021/10/17 06:55:38;0.00;0.00;0.62;0.00;0.00;0.62;3.20;1.70;;;22.10;27.60;;;;;;2240576;62;20435;-54
2021/10/17 06:58:23;0.00;0.00;0.62;0.00;0.00;0.62;3.80;2.00;;;22.10;27.60;;;;;;2240623;62;20387;-57
2021/10/17 07:01:07;0.00;0.00;0.62;0.00;0.00;0.62;3.00;1.80;;;22.10;27.60;;;;;;2239740;62;20371;-56
2021/10/17 07:03:52;0.00;0.00;0.62;0.00;0.00;0.62;3.67;1.50;;;22.10;27.60;;;;;;2240430;62;20780;-52
2021/10/17 07:06:39;0.00;0.00;0.62;0.00;0.00;0.62;2.50;1.40;;;22.10;27.60;;;;;;2240500;62;20364;-54
2021/10/17 07:09:26;0.00;0.00;0.62;0.00;0.00;0.62;4.00;2.10;;;22.10;27.60;;;;;;2239604;62;20372;-56
2021/10/17 07:12:24;0.00;0.00;0.62;0.00;0.00;0.62;3.70;1.80;;;22.10;27.70;;;;;;2240426;62;20554;-55
2021/10/17 07:15:09;0.00;0.00;0.62;0.00;0.00;0.62;4.33;2.20;;;22.10;27.60;;;;;;2239760;62;20727;-52
2021/10/17 07:18:01;0.00;0.00;0.62;0.00;0.00;0.62;3.43;2.43;;;22.10;27.60;;;;;;2240347;62;20648;-53
2021/10/17 07:20:45;0.00;0.00;0.62;0.00;0.00;0.62;3.27;1.73;;;22.10;27.60;;;;;;2240568;62;20408;-54
2021/10/17 07:23:30;0.00;0.00;0.62;0.00;0.00;0.62;2.67;1.97;;;22.10;27.60;;;;;;2239714;62;20440;-54
2021/10/17 07:26:14;0.00;0.00;0.62;0.00;0.00;0.62;4.20;1.50;;;22.10;27.60;;;;;;2240131;62;20359;-53
2021/10/17 07:29:00;0.00;0.00;0.62;0.00;0.00;0.62;4.00;2.80;;;22.10;27.60;;;;;;2240572;62;20379;-51
2021/10/17 07:31:45;0.00;0.00;0.62;0.00;0.00;0.62;2.80;1.67;;;22.10;27.60;;;;;;2239669;62;20440;-52
2021/10/17 07:34:30;0.00;0.00;0.62;0.00;0.00;0.62;4.57;1.87;;;22.10;27.60;;;;;;2240281;62;20408;-55
2021/10/17 07:37:15;0.00;0.00;0.62;0.00;0.00;0.62;5.53;2.43;;;22.10;27.70;;;;;;2239759;62;20443;-52
2021/10/17 07:40:00;0.00;0.00;0.62;0.00;0.00;0.62;3.40;1.70;;;22.10;27.60;;;;;;2240526;62;20367;-54
2021/10/17 07:42:48;0.00;0.00;0.62;0.00;0.00;0.62;3.20;2.10;;;22.10;27.70;;;;;;2240532;62;20435;-55
2021/10/17 07:45:41;0.00;0.00;0.62;0.00;0.00;0.62;2.60;2.00;;;22.10;27.70;;;;;;2239497;62;20360;-56
2021/10/17 07:48:27;0.00;0.00;0.62;0.00;0.00;0.62;3.13;2.00;;;22.10;27.70;;;;;;2240194;62;20383;-51
2021/10/17 07:51:11;0.00;0.00;0.62;0.00;0.00;0.62;3.20;1.90;;;22.10;27.70;;;;;;2240615;62;20752;-51
2021/10/17 07:53:57;0.00;0.00;0.62;0.00;0.00;0.62;4.33;2.00;;;22.10;27.70;;;;;;2239596;62;20630;-52
2021/10/17 07:56:50;0.00;0.00;0.62;0.00;0.00;0.62;4.03;2.10;;;22.10;27.70;;;;;;2240009;62;20363;-55
2021/10/17 07:59:37;0.00;0.00;0.62;0.00;0.00;0.62;5.67;2.20;;;22.10;27.70;;;;;;2239567;62;20390;-52
2021/10/17 08:02:24;0.00;0.00;0.62;0.00;0.00;0.62;4.20;2.10;;;22.10;27.70;;;;;;2240396;62;20400;-53
2021/10/17 08:05:09;0.00;0.00;0.62;0.00;0.00;0.62;3.70;2.33;;;22.10;27.70;;;;;;2240555;62;20371;-52
2021/10/17 08:07:57;0.00;0.00;0.62;0.00;0.00;0.62;4.10;2.23;;;22.10;27.60;;;;;;2237171;62;20747;-52
2021/10/17 08:10:42;0.00;0.00;0.62;0.00;0.00;0.62;5.30;2.20;;;22.10;27.60;;;;;;2240260;62;20440;-52
2021/10/17 08:13:28;0.00;0.00;0.62;0.00;0.00;0.62;5.20;2.30;;;22.10;27.60;;;;;;2240348;62;20399;-49
2021/10/17 08:16:16;0.00;0.00;0.62;0.00;0.00;0.62;5.10;2.20;;;22.10;27.60;;;;;;2239386;62;20371;-55
2021/10/17 08:19:10;0.00;0.00;0.62;0.00;0.00;0.62;4.17;2.63;;;22.10;27.60;;;;;;2239744;62;20750;-56
2021/10/17 08:21:55;0.00;0.00;0.62;0.00;0.00;0.62;5.63;2.40;;;22.10;27.60;;;;;;2239171;62;20367;-55
2021/10/17 08:24:39;0.00;0.00;0.62;0.00;0.00;0.62;5.10;2.60;;;22.00;27.60;;;;;;2237385;62;20659;-53
2021/10/17 08:27:24;0.00;0.00;0.62;0.00;0.00;0.62;4.40;2.43;;;22.00;27.60;;;;;;2237608;62;20450;-52
2021/10/17 08:30:10;0.00;0.00;0.62;0.00;0.00;0.62;4.73;2.87;;;22.10;27.70;;;;;;2236702;62;20415;-53
2021/10/17 08:33:03;0.00;0.00;0.62;0.00;0.00;0.62;3.80;2.27;;;22.00;27.60;;;;;;2237374;62;20399;-56
2021/10/17 08:35:49;0.00;0.00;0.62;0.00;0.00;0.62;3.90;2.00;;;22.00;27.60;;;;;;2237466;62;20407;-59
2021/10/17 08:38:35;0.00;0.00;0.62;0.00;0.00;0.62;4.40;2.90;;;22.00;27.70;;;;;;2235994;62;20528;-51
2021/10/17 08:41:25;0.00;0.00;0.62;0.00;0.00;0.62;4.10;2.20;;;22.00;27.60;;;;;;2240043;62;20424;-55
2021/10/17 08:44:22;0.00;0.00;0.62;0.00;0.00;0.62;4.50;3.40;;;22.00;27.60;;;;;;2236675;62;20420;-52
2021/10/17 08:47:35;0.00;0.00;0.62;0.00;0.00;0.62;5.07;3.20;;;22.00;27.50;;;;;;2237687;62;20391;-54
2021/10/17 08:50:19;0.00;0.00;0.62;0.00;0.00;0.62;3.47;2.20;;;22.00;27.40;;;;;;2237420;62;20359;-51
2021/10/17 08:53:05;0.00;0.00;0.62;0.00;0.00;0.62;6.03;2.80;;;22.00;27.40;;;;;;2237127;62;20454;-52
2021/10/17 08:55:56;0.00;0.00;0.62;0.00;0.00;0.62;6.57;2.90;;;22.00;27.40;;;;;;2237265;62;20715;-56
2021/10/17 08:58:46;0.00;0.00;0.62;0.00;0.00;0.62;4.47;2.43;;;21.90;27.20;;;;;;2236414;62;20387;-53
2021/10/17 09:01:43;0.00;0.00;0.62;0.00;0.00;0.62;4.60;2.73;;;21.90;27.20;;;;;;2237267;62;20623;-49
2021/10/17 09:04:30;0.00;0.00;0.62;0.00;0.00;0.62;5.13;2.50;;;21.90;27.30;;;;;;2237453;62;20727;-48
2021/10/17 09:07:20;0.00;0.00;0.62;0.00;0.00;0.62;4.87;2.97;;;21.90;27.30;;;;;;2239128;62;20408;-54
2021/10/17 09:10:25;0.00;0.00;0.62;0.00;0.00;0.62;4.73;2.53;;;21.90;27.40;;;;;;2237825;62;20408;-52
2021/10/17 09:13:14;0.00;0.00;0.62;0.00;0.00;0.62;4.07;2.50;;;21.90;27.40;;;;;;2237255;62;20727;-52
2021/10/17 09:15:59;0.00;0.00;0.62;0.00;0.00;0.62;4.40;2.33;;;21.90;27.40;;;;;;2237610;62;20476;-51
2021/10/17 09:18:43;0.00;0.00;0.62;0.00;0.00;0.62;3.93;2.33;;;21.90;27.50;;;;;;2237581;62;20504;-58
2021/10/17 09:21:31;0.00;0.00;0.62;0.00;0.00;0.62;5.50;3.17;;;21.90;27.50;;;;;;2239230;62;20367;-57
2021/10/17 09:24:25;0.00;0.00;0.62;0.00;0.00;0.62;3.70;2.33;;;21.90;27.50;;;;;;2237701;62;20395;-51
2021/10/17 09:27:17;0.00;0.00;0.62;0.00;0.00;0.62;4.20;2.77;;;21.90;27.50;;;;;;2238428;62;20656;-54
2021/10/17 09:30:02;0.00;0.00;0.62;0.00;0.00;0.62;3.70;2.13;;;21.90;27.50;;;;;;2237700;62;20587;-54
2021/10/17 09:32:47;0.00;0.00;0.62;0.00;0.00;0.62;3.37;2.57;;;21.90;27.40;;;;;;2237757;62;20758;-52
2021/10/17 09:35:31;0.00;0.00;0.62;0.00;0.00;0.62;2.87;2.30;;;22.00;27.50;;;;;;2237457;62;20489;-52
2021/10/17 09:38:37;0.00;0.00;0.62;0.00;0.00;0.62;4.83;2.93;;;21.90;27.50;;;;;;2240907;62;20419;-54
2021/10/17 09:41:31;0.00;0.00;0.62;0.00;0.00;0.62;6.37;2.77;;;22.00;27.60;;;;;;2275000;58;20375;-53
2021/10/17 09:44:18;0.00;0.00;0.62;0.00;0.00;0.62;5.10;3.27;;;22.00;27.60;;;;;;2236881;62;20783;-49
2021/10/17 09:47:03;0.00;0.00;0.62;0.00;0.00;0.62;4.67;2.90;;;22.00;27.70;;;;;;2238070;62;20719;-53
2021/10/17 09:49:52;0.00;0.00;0.62;0.00;0.00;0.62;6.23;3.40;;;22.00;27.70;;;;;;2238230;62;20391;-54
2021/10/17 09:52:37;0.00;0.00;0.62;0.00;0.00;0.62;6.80;4.20;;;22.00;27.80;;;;;;2237967;62;20391;-55
2021/10/17 09:55:23;0.00;0.00;0.62;0.00;0.00;0.62;5.20;3.77;;;22.00;28.40;;;;;;2238140;62;20783;-53
2021/10/17 09:58:08;0.00;0.00;0.62;0.00;0.00;0.62;8.43;3.73;;;22.00;28.00;;;;;;2527043;46;20797;-55
2021/10/17 10:00:54;0.00;0.00;0.62;0.00;0.00;0.62;4.50;3.30;;;22.00;28.00;;;;;;2234314;62;20380;-57
2021/10/17 10:03:39;0.00;0.00;0.62;0.00;0.00;0.62;5.30;3.07;;;22.00;28.00;;;;;;2234448;62;20589;-54
2021/10/17 10:06:24;0.00;0.00;0.62;0.00;0.00;0.62;7.63;3.90;;;22.10;28.10;;;;;;2233594;62;20368;-57
2021/10/17 10:09:10;0.00;0.00;0.62;0.00;0.00;0.62;5.80;3.17;;;22.10;28.10;;;;;;2234174;62;20468;-52
2021/10/17 10:11:55;0.00;0.00;0.62;0.00;0.00;0.62;4.40;2.40;;;22.10;28.10;;;;;;2234480;62;20428;-58
2021/10/17 10:14:41;0.00;0.00;0.62;0.00;0.00;0.62;3.50;2.93;;;22.10;28.10;;;;;;2234827;62;20374;-56
2021/10/17 10:17:29;0.00;0.00;0.62;0.00;0.00;0.62;4.83;3.00;;;22.10;28.10;;;;;;2237659;62;20443;-55
2021/10/17 10:20:14;0.00;0.00;0.62;0.00;0.00;0.62;4.70;2.47;;;22.10;28.10;;;;;;2237432;62;20501;-54
2021/10/17 10:23:01;0.00;0.00;0.62;0.00;0.00;0.62;5.00;1.90;;;22.20;28.10;;;;;;2240458;62;20404;-57
2021/10/17 10:25:50;0.00;0.00;0.62;0.00;0.00;0.62;5.07;2.73;;;22.20;28.20;;;;;;2238108;62;20658;-54
2021/10/17 10:28:39;0.00;0.00;0.62;0.00;0.00;0.62;4.70;2.67;;;22.20;28.20;;;;;;2237333;62;20600;-53
2021/10/17 10:31:50;0.00;0.00;0.62;0.00;0.00;0.62;3.00;2.60;;;22.30;28.40;;;;;;2237596;62;20359;-53
2021/10/17 10:35:09;0.00;0.00;0.62;0.00;0.00;0.62;6.07;2.47;;;22.30;28.40;;;;;;2238152;62;20595;-53
2021/10/17 10:38:00;0.00;0.00;0.62;0.00;0.00;0.62;4.13;2.67;;;22.30;28.30;;;;;;2237675;62;20387;-52
2021/10/17 10:41:15;0.00;0.00;0.62;0.00;0.00;0.62;3.77;2.40;;;22.40;28.40;;;;;;2238445;62;20371;-57
2021/10/17 10:44:12;0.00;0.00;0.62;0.00;0.00;0.62;3.77;2.67;;;22.30;28.20;;;;;;2237431;62;20767;-54
2021/10/17 10:46:58;0.00;0.00;0.62;0.00;0.00;0.62;3.57;2.10;;;22.40;28.30;;;;;;2237848;62;20363;-54
2021/10/17 10:49:45;0.00;0.00;0.62;0.00;0.00;0.62;2.57;1.90;;;22.40;28.30;;;;;;2237693;62;20431;-53
2021/10/17 10:52:57;0.00;0.00;0.62;0.00;0.00;0.62;2.40;2.10;;;22.50;29.00;;;;;;2238088;62;20599;-56
2021/10/17 10:55:50;0.00;0.00;0.62;0.00;0.00;0.62;3.40;1.80;;;22.50;28.40;;;;;;2232194;62;20596;-58
2021/10/17 10:58:38;0.00;0.00;0.62;0.00;0.00;0.62;3.73;2.47;;;22.50;28.40;;;;;;2237102;62;20382;-55
2021/10/17 11:01:58;0.00;0.00;0.62;0.00;0.00;0.62;3.53;2.30;;;22.60;28.40;;;;;;2238059;62;20580;-54